Time;durP1;ratioP1;P1;durP2;ratioP2;P2;SDS_P1;SDS_P2;PMS_P1;PMS_P2;Temp;Humidity;BMP_temperature;BMP_pressure;BME280_temperature;BME280_humidity;BME280_pressure;Samples;Min_cycle;Max_cycle;Signal;HPM_P1;HPM_P2
2021/03/02 00:02:47;;;;;;;200.90;117.37;;;;;;;2.93;77.88;102112.05;2801261;84;21478;-61
2021/03/02 00:06:53;;;;;;;138.18;81.72;;;;;;;2.76;78.70;102114.19;2749301;86;22198;-61
2021/03/02 00:11:00;;;;;;;112.45;69.03;;;;;;;2.70;78.94;102111.22;2725341;87;21183;-60
2021/03/02 00:15:07;;;;;;;92.22;59.40;;;;;;;2.67;78.81;102106.88;2724791;87;21188;-62
2021/03/02 00:19:18;;;;;;;94.03;57.78;;;;;;;2.64;78.88;102106.95;2749267;85;21631;-61
2021/03/02 00:23:28;;;;;;;89.97;62.05;;;;;;;2.65;79.13;102113.93;2770360;85;21667;-60
2021/03/02 00:27:35;;;;;;;101.60;62.95;;;;;;;2.75;79.16;102111.98;2802353;84;21585;-62
2021/03/02 00:31:43;;;;;;;129.15;78.15;;;;;;;2.84;78.97;102107.00;2725355;86;21201;-60
2021/03/02 00:35:46;;;;;;;;;;;;;;;2.95;78.91;102106.34;2722085;87;21146;-60
2021/03/02 00:39:50;;;;;;;169.55;93.58;;;;;;;3.07;78.84;102104.34;2723220;87;20184;-60
2021/03/02 00:43:53;;;;;;;153.95;87.05;;;;;;;3.12;78.52;102102.47;2719406;87;21225;-61
2021/03/02 00:47:56;;;;;;;147.87;82.95;;;;;;;3.14;77.98;102094.97;2686338;87;21797;-59
2021/03/02 00:52:00;;;;;;;227.00;119.15;;;;;;;3.13;77.72;102088.42;2686288;88;21154;-61
2021/03/02 00:56:06;;;;;;;267.95;129.70;;;;;;;3.17;78.14;102082.66;2686167;87;21165;-60
2021/03/02 01:00:11;;;;;;;165.32;85.90;;;;;;;3.23;78.35;102087.34;2686140;88;21149;-61
2021/03/02 01:04:14;;;;;;;108.90;66.30;;;;;;;3.33;78.64;102089.31;2714214;85;21149;-61
2021/03/02 01:08:17;;;;;;;122.72;75.03;;;;;;;3.44;78.35;102085.12;2777940;85;22260;-61
2021/03/02 01:12:26;;;;;;;165.85;91.42;;;;;;;3.36;77.04;102092.33;2777609;85;21153;-61
2021/03/02 01:16:28;;;;;;;172.00;95.62;;;;;;;3.28;77.40;102084.14;2777910;85;21213;-60
2021/03/02 01:20:33;;;;;;;140.47;83.52;;;;;;;3.26;77.41;102080.69;2777738;85;21618;-61
2021/03/02 01:24:37;;;;;;;117.03;70.15;;;;;;;3.28;77.40;102075.41;2777972;85;21172;-61
2021/03/02 01:28:40;;;;;;;107.12;67.17;;;;;;;3.27;77.13;102078.94;2777772;85;21148;-60
2021/03/02 01:32:43;;;;;;;95.25;63.28;;;;;;;3.28;77.08;102081.52;2777864;85;21179;-59
2021/03/02 01:36:46;;;;;;;110.85;65.80;;;;;;;3.35;77.39;102082.71;2777789;85;21180;-60
2021/03/02 01:40:51;;;;;;;117.20;65.17;;;;;;;3.35;76.97;102076.14;2777859;85;21153;-60
2021/03/02 01:45:19;;;;;;;101.38;60.78;;;;;;;3.28;76.74;102067.05;2765356;85;21654;-60
2021/03/02 01:49:23;;;;;;;95.38;58.08;;;;;;;3.26;76.92;102069.31;2758372;86;21605;-59
2021/03/02 01:53:26;;;;;;;99.13;60.60;;;;;;;3.22;77.57;102065.88;2718761;87;21619;-60
2021/03/02 01:57:29;;;;;;;91.57;61.25;;;;;;;3.25;77.69;102067.13;2731418;87;21169;-60
2021/03/02 02:01:34;;;;;;;110.03;66.77;;;;;;;3.24;77.48;102068.45;2730901;87;21182;-60
2021/03/02 02:05:47;;;;;;;103.42;67.78;;;;;;;3.28;77.83;102064.88;2713515;87;21188;-61
2021/03/02 02:10:03;;;;;;;116.73;69.70;;;;;;;3.32;78.30;102069.60;2686975;88;21176;-61
2021/03/02 02:14:14;;;;;;;95.92;55.78;;;;;;;3.40;78.04;102062.41;2686653;87;21200;-60
2021/03/02 02:18:22;;;;;;;104.95;67.03;;;;;;;3.29;76.29;102064.83;2686620;87;21660;-59
2021/03/02 02:22:58;;;;;;;121.37;74.65;;;;;;;3.06;76.83;102055.28;2686773;88;21634;-58
2021/03/02 02:27:02;;;;;;;118.00;72.55;;;;;;;2.94;78.53;102056.41;2693520;88;21195;-61
2021/03/02 02:31:08;;;;;;;111.22;68.35;;;;;;;2.98;79.31;102054.13;2731776;85;21655;-59
2021/03/02 02:35:13;;;;;;;108.60;67.60;;;;;;;2.90;78.48;102052.97;2727997;87;21168;-60
2021/03/02 02:39:18;;;;;;;115.47;72.33;;;;;;;2.91;79.20;102058.65;2728370;85;21185;-59
2021/03/02 02:43:22;;;;;;;109.97;68.50;;;;;;;2.95;78.84;102047.63;2753108;85;21401;-58
2021/03/02 02:47:27;;;;;;;104.40;64.37;;;;;;;2.84;77.84;102043.45;2780895;85;21189;-62
2021/03/02 02:51:32;;;;;;;104.50;67.60;;;;;;;2.66;78.26;102047.80;2780908;85;21599;-60
2021/03/02 02:55:45;;;;;;;110.12;72.27;;;;;;;2.46;78.30;102044.25;2780785;85;21659;-61
2021/03/02 02:59:51;;;;;;;109.75;69.53;;;;;;;2.40;78.68;102043.48;2784325;85;21186;-61
2021/03/02 03:03:57;;;;;;;94.03;59.38;;;;;;;2.48;78.33;102035.88;2784527;85;21661;-60
2021/03/02 03:08:21;;;;;;;107.85;68.40;;;;;;;2.48;77.78;102031.94;2784341;85;21155;-60
2021/03/02 03:12:29;;;;;;;116.77;72.27;;;;;;;2.49;77.84;102037.61;2784505;85;21150;-59
2021/03/02 03:16:34;;;;;;;105.90;65.97;;;;;;;2.60;77.86;102034.34;2784364;85;21146;-61
2021/03/02 03:20:38;;;;;;;98.78;68.00;;;;;;;2.64;77.11;102038.62;2784382;85;21149;-62
2021/03/02 03:24:44;;;;;;;112.32;70.28;;;;;;;2.63;76.83;102034.70;2783013;85;21178;-58
2021/03/02 03:28:51;;;;;;;96.40;63.38;;;;;;;2.61;76.95;102030.81;2780688;85;21636;-59
2021/03/02 03:33:05;;;;;;;115.92;70.12;;;;;;;2.69;77.07;102030.19;2780692;85;21161;-59
2021/03/02 03:37:11;;;;;;;123.38;76.07;;;;;;;2.75;76.84;102027.01;2780707;85;21149;-60
2021/03/02 03:41:14;;;;;;;102.60;66.53;;;;;;;2.76;76.64;102041.91;2780745;84;22472;-60
2021/03/02 03:45:17;;;;;;;95.92;58.28;;;;;;;2.85;77.19;102039.95;2780656;84;21580;-61
2021/03/02 03:49:22;;;;;;;111.08;63.20;;;;;;;2.94;77.09;102040.64;2757501;85;21178;-60
2021/03/02 03:53:28;;;;;;;113.05;67.00;;;;;;;2.84;75.94;102047.86;2780672;85;21158;-60
2021/03/02 03:57:53;;;;;;;121.60;64.95;;;;;;;2.68;76.66;102035.49;2781451;85;21178;-59
2021/03/02 04:01:57;;;;;;;108.97;66.65;;;;;;;2.68;77.18;102038.12;2646912;89;21594;-59
2021/03/02 04:06:03;;;;;;;100.53;64.12;;;;;;;2.65;76.79;102040.35;2647225;89;21212;-61
2021/03/02 04:10:09;;;;;;;102.45;59.42;;;;;;;2.54;76.82;102043.63;2647098;89;21689;-60
2021/03/02 04:14:12;;;;;;;80.60;52.97;;;;;;;2.55;77.36;102051.93;2647534;89;21196;-59
2021/03/02 04:18:18;;;;;;;93.17;58.55;;;;;;;2.57;77.75;102061.98;2647039;89;21192;-60
2021/03/02 04:22:23;;;;;;;88.07;58.53;;;;;;;2.55;77.43;102054.13;2647337;89;21452;-60
2021/03/02 04:26:26;;;;;;;111.68;61.90;;;;;;;2.56;77.22;102054.54;2647046;89;21175;-60
2021/03/02 04:30:30;;;;;;;95.75;58.48;;;;;;;2.56;77.30;102051.91;2647225;89;21174;-60
2021/03/02 04:34:34;;;;;;;102.65;56.02;;;;;;;2.59;76.91;102054.06;2647002;89;22307;-58
2021/03/02 04:38:38;;;;;;;77.55;49.75;;;;;;;2.52;76.16;102041.48;2647263;89;21282;-60
2021/03/02 04:42:43;;;;;;;100.20;54.93;;;;;;;2.34;75.62;102048.83;2666404;88;21208;-61
2021/03/02 04:46:46;;;;;;;86.00;53.00;;;;;;;2.16;76.11;102046.54;2689660;88;21677;-59
2021/03/02 04:50:49;;;;;;;89.03;54.08;;;;;;;2.09;76.23;102045.35;2690130;88;21186;-59
2021/03/02 04:54:53;;;;;;;69.62;49.15;;;;;;;2.07;76.43;102044.52;2689582;88;21233;-60
2021/03/02 04:58:58;;;;;;;76.10;48.33;;;;;;;2.08;76.26;102033.58;2697422;87;21602;-59
2021/03/02 05:03:02;;;;;;;71.17;48.87;;;;;;;2.15;76.97;102039.13;2725241;87;21192;-60
2021/03/02 05:07:06;;;;;;;78.65;48.60;;;;;;;2.27;76.77;102033.66;2681664;88;21606;-59
2021/03/02 05:11:09;;;;;;;81.72;55.28;;;;;;;2.33;76.01;102036.59;2681671;88;21148;-59
2021/03/02 05:15:14;;;;;;;92.35;58.45;;;;;;;2.25;75.31;102042.45;2763993;85;21594;-61
2021/03/02 05:19:17;;;;;;;88.17;55.17;;;;;;;2.10;75.68;102041.83;2763943;86;22214;-60
2021/03/02 05:23:20;;;;;;;82.92;52.08;;;;;;;2.13;76.14;102036.52;2764419;86;21155;-60
2021/03/02 05:27:25;;;;;;;83.03;50.28;;;;;;;2.16;75.89;102026.85;2764021;86;21160;-59
2021/03/02 05:31:30;;;;;;;90.17;58.48;;;;;;;2.05;75.03;102027.05;2763943;86;21715;-58
2021/03/02 05:35:35;;;;;;;82.62;54.42;;;;;;;2.02;76.18;102026.67;2764231;86;21164;-58
2021/03/02 05:39:38;;;;;;;114.05;67.97;;;;;;;1.82;74.88;102015.20;2763970;86;21158;-60
2021/03/02 05:43:43;;;;;;;108.15;63.78;;;;;;;1.59;76.36;102030.89;2763861;86;21190;-58
2021/03/02 05:47:50;;;;;;;101.25;62.03;;;;;;;1.56;76.45;102023.92;2683664;87;21117;-59
2021/03/02 05:51:55;;;;;;;111.15;65.75;;;;;;;1.52;76.20;102035.36;2681724;88;21631;-61
2021/03/02 05:55:59;;;;;;;124.72;79.27;;;;;;;1.62;77.47;102039.17;2681656;88;21643;-61
2021/03/02 06:00:04;;;;;;;131.57;77.55;;;;;;;1.77;77.46;102038.92;2681639;88;21650;-58
2021/03/02 06:08:26;;;;;;;139.50;79.67;;;;;;;2.00;76.94;102046.38;3100701;76;22855;-59
2021/03/02 06:12:30;;;;;;;133.10;76.62;;;;;;;1.99;76.78;102056.46;2930980;80;21181;-61
2021/03/02 06:16:52;;;;;;;114.90;75.08;;;;;;;2.02;76.79;102063.86;2988515;79;21481;-59
2021/03/02 06:21:16;;;;;;;115.05;71.82;;;;;;;2.04;76.94;102065.58;2931040;80;21148;-57
2021/03/02 06:25:31;;;;;;;112.32;71.45;;;;;;;2.12;77.34;102068.92;2959037;79;21180;-61
2021/03/02 06:29:36;;;;;;;127.25;80.83;;;;;;;2.28;77.70;102071.27;2890568;81;22200;-58
2021/03/02 06:33:39;;;;;;;123.25;68.50;;;;;;;2.51;77.71;102069.97;2930615;81;21085;-59
2021/03/02 06:37:47;;;;;;;115.77;70.10;;;;;;;2.66;76.88;102067.52;2895545;81;21152;-59
2021/03/02 06:41:53;;;;;;;96.90;61.05;;;;;;;2.69;76.71;102069.61;2873205;82;21591;-59
2021/03/02 06:45:56;;;;;;;109.10;60.98;;;;;;;2.69;76.58;102066.98;2871101;82;21160;-57
2021/03/02 06:50:13;;;;;;;96.92;57.78;;;;;;;2.71;76.51;102074.38;2864692;82;21157;-58
2021/03/02 06:54:17;;;;;;;93.62;55.28;;;;;;;2.71;76.46;102074.38;2863202;81;21168;-59
2021/03/02 06:58:25;;;;;;;86.45;53.45;;;;;;;2.70;76.93;102070.48;2855124;81;21124;-58
2021/03/02 07:02:47;;;;;;;93.78;53.83;;;;;;;2.57;76.40;102068.56;2860329;82;21143;-58
2021/03/02 07:06:58;;;;;;;103.25;61.83;;;;;;;2.37;76.87;102073.75;2867968;81;21164;-60
2021/03/02 07:11:03;;;;;;;119.67;73.55;;;;;;;2.39;78.65;102078.95;2883325;82;21594;-60
2021/03/02 07:15:10;;;;;;;105.07;71.77;;;;;;;2.50;78.97;102074.80;2863756;82;21168;-59
2021/03/02 07:19:20;;;;;;;86.80;61.35;;;;;;;2.82;79.62;102079.88;2854712;82;21120;-61
2021/03/02 07:23:24;;;;;;;95.00;58.52;;;;;;;3.11;79.63;102088.91;2858397;82;21172;-60
2021/03/02 07:27:30;;;;;;;82.37;54.60;;;;;;;3.38;78.97;102083.48;2841645;81;21612;-59
2021/03/02 07:31:34;;;;;;;97.02;60.95;;;;;;;3.44;77.07;102077.22;2874263;82;21161;-59
2021/03/02 07:35:38;;;;;;;116.95;66.47;;;;;;;3.39;77.87;102080.42;2833679;82;21160;-58
2021/03/02 07:40:03;;;;;;;106.40;68.30;;;;;;;3.38;78.38;102093.16;2884247;82;21157;-61
2021/03/02 07:44:08;;;;;;;177.75;124.67;;;;;;;3.56;79.17;102094.48;2852734;82;21454;-59
2021/03/02 07:48:24;;;;;;;156.80;106.70;;;;;;;3.73;78.80;102105.08;2902953;81;21125;-60
2021/03/02 07:52:27;;;;;;;136.72;97.80;;;;;;;4.01;78.51;102090.78;2870106;82;21157;-63
2021/03/02 07:56:33;;;;;;;103.75;65.08;;;;;;;4.30;78.41;102093.09;2835023;82;21145;-59
2021/03/02 08:00:36;;;;;;;255.67;171.45;;;;;;;4.39;77.61;102101.21;2843842;82;21156;-59
2021/03/02 08:04:40;;;;;;;94.30;61.40;;;;;;;4.61;78.79;102105.45;2875832;81;21172;-62
2021/03/02 08:08:44;;;;;;;109.60;67.15;;;;;;;4.92;77.96;102100.66;2859941;82;21174;-62
2021/03/02 08:12:47;;;;;;;97.70;64.30;;;;;;;5.24;77.48;102101.92;2873419;82;21600;-62
2021/03/02 08:17:04;;;;;;;99.77;63.55;;;;;;;5.37;76.70;102097.97;2864179;82;21191;-62
2021/03/02 08:21:17;;;;;;;96.30;65.30;;;;;;;5.40;77.02;102099.22;2823868;84;21164;-60
2021/03/02 08:25:27;;;;;;;103.32;66.25;;;;;;;5.49;78.01;102096.72;2817746;84;21419;-62
2021/03/02 08:29:30;;;;;;;109.00;68.97;;;;;;;5.73;77.57;102090.28;2825080;84;21116;-58
2021/03/02 08:33:33;;;;;;;89.28;59.73;;;;;;;5.98;78.46;102092.94;2845714;83;21674;-58
2021/03/02 08:37:49;;;;;;;95.92;60.17;;;;;;;6.26;78.07;102092.50;2815917;84;21167;-59
2021/03/02 08:41:52;;;;;;;99.52;62.70;;;;;;;6.55;77.94;102088.81;2851864;83;21244;-62
2021/03/02 08:45:58;;;;;;;73.33;49.45;;;;;;;6.76;77.78;102087.63;2814309;84;21195;-60
2021/03/02 08:50:07;;;;;;;65.42;47.33;;;;;;;6.98;76.97;102088.18;2820746;84;21155;-60
2021/03/02 08:54:10;;;;;;;80.45;53.90;;;;;;;7.15;76.60;102078.26;2802801;82;21907;-59
2021/03/02 08:58:13;;;;;;;95.50;63.73;;;;;;;7.32;76.72;102084.69;2844517;83;21661;-61
2021/03/02 09:02:16;;;;;;;74.80;51.02;;;;;;;7.46;77.23;102088.95;2819861;84;21158;-61
2021/03/02 09:06:25;;;;;;;111.55;62.75;;;;;;;7.68;76.73;102089.44;2860135;82;21186;-61
2021/03/02 09:10:29;;;;;;;123.38;75.60;;;;;;;7.96;77.14;102090.93;2843598;82;21610;-61
2021/03/02 09:14:37;;;;;;;111.05;64.77;;;;;;;8.30;77.12;102086.84;2852012;81;21180;-62
2021/03/02 09:18:40;;;;;;;111.80;67.53;;;;;;;8.61;76.26;102080.69;2820656;84;21192;-64
2021/03/02 09:22:43;;;;;;;88.85;54.05;;;;;;;8.83;75.75;102087.19;2848568;82;21133;-64
2021/03/02 09:27:03;;;;;;;83.52;56.88;;;;;;;8.89;74.67;102094.89;2843536;82;21184;-63
2021/03/02 09:31:06;;;;;;;77.92;48.52;;;;;;;9.08;75.20;102090.05;2819657;84;21746;-62
2021/03/02 09:35:11;;;;;;;68.97;45.55;;;;;;;9.27;74.90;102086.05;2850730;82;21436;-64
2021/03/02 09:39:24;;;;;;;70.90;43.23;;;;;;;9.45;75.05;102088.77;2845192;82;21175;-63
2021/03/02 09:43:38;;;;;;;74.87;45.85;;;;;;;9.68;74.01;102084.51;2850517;82;21475;-65
2021/03/02 09:47:43;;;;;;;67.80;43.78;;;;;;;9.93;73.65;102079.77;2846854;82;21603;-64
2021/03/02 09:51:48;;;;;;;83.27;48.23;;;;;;;9.98;72.32;102079.06;2851705;82;21641;-65
2021/03/02 09:55:51;;;;;;;84.77;53.08;;;;;;;10.06;73.61;102075.56;2851310;82;21124;-62
2021/03/02 09:59:56;;;;;;;69.45;45.83;;;;;;;10.28;73.86;102084.60;2849576;82;21200;-63
2021/03/02 10:04:07;;;;;;;64.70;39.58;;;;;;;10.54;72.88;102082.88;2845229;82;21156;-63
2021/03/02 10:08:47;;;;;;;57.88;35.40;;;;;;;10.63;71.58;102076.21;2844230;82;21168;-65
2021/03/02 10:13:02;;;;;;;51.02;36.45;;;;;;;10.68;72.35;102071.49;2839685;83;21114;-64
2021/03/02 10:17:06;;;;;;;64.70;40.92;;;;;;;10.78;71.65;102078.51;2842134;83;21137;-63
2021/03/02 10:21:11;;;;;;;71.70;42.93;;;;;;;10.97;72.57;102075.23;2816929;84;21137;-62
2021/03/02 10:25:14;;;;;;;53.17;39.27;;;;;;;11.14;71.62;102079.64;2840196;83;21705;-63
2021/03/02 10:29:18;;;;;;;52.65;33.42;;;;;;;11.17;71.11;102074.59;2853219;81;21161;-63
2021/03/02 10:33:24;;;;;;;50.88;32.95;;;;;;;11.31;71.56;102078.30;2841518;83;21592;-64
2021/03/02 10:37:26;;;;;;;;;;;;;;;11.46;70.12;102073.44;2849745;81;21169;-62
2021/03/02 10:41:30;;;;;;;51.80;36.95;;;;;;;11.56;70.62;102081.27;2828297;81;20197;-64
2021/03/02 10:45:34;;;;;;;57.67;41.60;;;;;;;11.77;70.32;102079.64;2857618;83;21145;-64
2021/03/02 10:49:38;;;;;;;62.13;38.73;;;;;;;11.90;69.21;102071.81;2831157;81;21190;-64
2021/03/02 10:53:42;;;;;;;47.43;31.20;;;;;;;11.96;68.94;102067.89;2821885;83;21160;-65
2021/03/02 10:57:46;;;;;;;44.83;29.10;;;;;;;11.97;67.95;102066.94;2839419;81;21190;-63
2021/03/02 11:01:50;;;;;;;57.10;35.15;;;;;;;12.04;68.34;102060.34;2839241;83;21576;-64
2021/03/02 11:05:54;;;;;;;56.08;34.55;;;;;;;12.11;67.52;102058.17;2844880;81;21176;-65
2021/03/02 11:09:56;;;;;;;48.05;35.03;;;;;;;12.24;68.08;102051.13;2898384;80;21127;-64
2021/03/02 11:13:59;;;;;;;52.25;32.25;;;;;;;12.38;67.94;102048.97;2904727;80;21605;-64
2021/03/02 11:18:04;;;;;;;48.58;31.65;;;;;;;12.50;67.50;102043.80;2889326;80;21164;-62
2021/03/02 11:22:10;;;;;;;49.67;33.48;;;;;;;12.57;67.12;102040.66;2893993;80;21192;-66
2021/03/02 11:26:13;;;;;;;46.45;32.80;;;;;;;12.64;66.89;102027.80;2884922;80;21165;-61
2021/03/02 11:30:18;;;;;;;45.98;29.23;;;;;;;12.73;66.45;102025.48;2891708;80;21136;-66
2021/03/02 11:34:22;;;;;;;44.00;30.65;;;;;;;12.75;65.72;102027.58;2886844;81;21602;-63
2021/03/02 11:38:26;;;;;;;48.50;29.35;;;;;;;12.83;66.11;102022.63;2883782;81;21132;-62
2021/03/02 11:42:29;;;;;;;50.28;32.95;;;;;;;12.92;65.40;102011.34;2894411;81;21156;-63
2021/03/02 11:46:36;;;;;;;43.17;29.18;;;;;;;13.05;65.82;102013.22;2892963;80;21113;-61
2021/03/02 11:51:02;;;;;;;50.08;31.15;;;;;;;13.22;65.18;102007.64;2892429;80;21701;-61
2021/03/02 11:55:09;;;;;;;42.40;30.17;;;;;;;13.37;64.97;102003.58;2822852;84;21154;-63
2021/03/02 11:59:12;;;;;;;52.40;34.00;;;;;;;13.54;65.77;101999.80;2848039;83;21656;-62
2021/03/02 12:03:15;;;;;;;51.85;32.75;;;;;;;13.60;64.63;101998.53;2808664;84;21181;-63
2021/03/02 12:07:19;;;;;;;47.40;30.60;;;;;;;13.65;63.38;101996.40;2817110;84;21176;-64
2021/03/02 12:11:22;;;;;;;46.10;32.38;;;;;;;13.67;63.23;101992.67;2836804;83;21178;-64
2021/03/02 12:15:25;;;;;;;46.63;33.73;;;;;;;13.66;64.23;101986.95;2851338;82;21140;-62
2021/03/02 12:19:29;;;;;;;51.55;32.75;;;;;;;13.70;63.34;101990.25;2849273;82;21175;-63
2021/03/02 12:23:33;;;;;;;44.80;31.27;;;;;;;13.80;62.99;101988.67;2872288;82;21171;-64
2021/03/02 12:27:36;;;;;;;46.55;30.32;;;;;;;13.92;62.46;101982.96;2846926;82;21193;-62
2021/03/02 12:31:44;;;;;;;49.75;32.90;;;;;;;14.02;61.99;101983.64;2852923;82;21586;-62
2021/03/02 12:35:47;;;;;;;50.98;32.17;;;;;;;14.08;61.36;101983.23;2848413;82;21156;-63
2021/03/02 12:39:50;;;;;;;42.95;30.20;;;;;;;14.16;62.03;101985.38;2850000;82;21189;-63
2021/03/02 12:43:53;;;;;;;49.48;31.60;;;;;;;14.25;61.75;101978.02;2847511;82;21641;-64
2021/03/02 12:47:56;;;;;;;41.60;31.10;;;;;;;14.34;61.26;101977.36;2855657;81;21168;-61
2021/03/02 12:52:01;;;;;;;45.98;30.43;;;;;;;14.39;60.89;101972.55;2860864;82;21168;-62
2021/03/02 12:56:04;;;;;;;40.58;31.10;;;;;;;14.46;60.93;101961.39;2864245;82;21133;-62
2021/03/02 13:00:09;;;;;;;43.28;30.95;;;;;;;14.50;60.68;101964.22;2844992;82;21174;-64
2021/03/02 13:04:14;;;;;;;50.12;31.73;;;;;;;14.56;60.82;101959.28;2861685;82;21133;-62
2021/03/02 13:08:17;;;;;;;53.05;34.25;;;;;;;14.67;60.75;101961.17;2859947;81;21168;-63
2021/03/02 13:12:22;;;;;;;49.38;32.90;;;;;;;14.78;60.69;101963.61;2817723;83;21141;-63
2021/03/02 13:16:26;;;;;;;50.78;34.43;;;;;;;14.88;60.63;101955.75;2819670;84;21642;-63
2021/03/02 13:20:30;;;;;;;51.10;33.98;;;;;;;14.90;60.07;101960.00;2821272;83;21141;-63
2021/03/02 13:24:34;;;;;;;47.93;32.78;;;;;;;14.89;60.38;101964.16;2866845;81;21180;-66
2021/03/02 13:28:42;;;;;;;45.05;32.63;;;;;;;14.92;60.89;101962.08;2858555;82;21213;-61
2021/03/02 13:33:02;;;;;;;49.20;33.18;;;;;;;14.91;61.07;101955.52;2813370;83;21185;-62
2021/03/02 13:37:06;;;;;;;50.90;34.58;;;;;;;14.96;61.06;101952.88;2871507;81;21172;-61
2021/03/02 13:41:10;;;;;;;59.98;34.48;;;;;;;14.93;60.80;101953.08;2867682;81;21141;-63
2021/03/02 13:45:15;;;;;;;54.30;35.85;;;;;;;14.99;61.69;101949.96;2844284;82;21462;-62
2021/03/02 13:49:19;;;;;;;50.70;33.80;;;;;;;15.05;60.89;101954.48;2834180;82;21169;-63
2021/03/02 13:53:22;;;;;;;54.40;35.73;;;;;;;15.04;60.78;101950.09;2850710;82;21180;-62
2021/03/02 13:57:32;;;;;;;47.23;34.08;;;;;;;15.07;60.50;101949.39;2892797;81;21556;-62
2021/03/02 14:01:37;;;;;;;50.63;34.45;;;;;;;15.12;60.31;101945.00;2863559;81;21172;-62
2021/03/02 14:05:44;;;;;;;61.00;41.35;;;;;;;15.18;59.84;101944.56;2880305;81;21184;-61
2021/03/02 14:09:49;;;;;;;49.85;31.95;;;;;;;15.19;59.54;101936.02;2905772;81;21340;-62
2021/03/02 14:13:53;;;;;;;50.17;35.40;;;;;;;15.27;59.61;101943.02;2869731;83;21193;-63
2021/03/02 14:17:56;;;;;;;69.55;49.73;;;;;;;15.33;58.71;101934.97;2857862;82;21502;-62
2021/03/02 14:22:01;;;;;;;50.48;32.00;;;;;;;15.42;58.36;101928.42;2831789;82;21152;-64
2021/03/02 14:26:07;;;;;;;60.30;40.85;;;;;;;15.43;57.81;101930.62;2833739;82;21125;-63
2021/03/02 14:30:14;;;;;;;47.98;33.33;;;;;;;15.46;58.41;101933.07;2849466;81;21164;-62
2021/03/02 14:34:18;;;;;;;52.40;33.40;;;;;;;15.44;57.78;101917.59;2866661;82;21130;-62
2021/03/02 14:38:21;;;;;;;47.73;31.55;;;;;;;15.48;57.56;101919.05;2867289;82;21202;-62
2021/03/02 14:42:28;;;;;;;50.03;30.02;;;;;;;15.51;57.70;101913.45;2848604;83;21201;-63
2021/03/02 14:46:37;;;;;;;47.67;33.05;;;;;;;15.55;57.88;101908.24;2852103;83;21160;-63
2021/03/02 14:50:41;;;;;;;42.83;30.20;;;;;;;15.55;57.92;101908.24;2854059;83;21188;-62
2021/03/02 14:54:49;;;;;;;41.98;31.55;;;;;;;15.55;58.28;101898.86;2835810;82;21129;-61
2021/03/02 14:58:53;;;;;;;48.33;31.62;;;;;;;15.55;58.15;101895.30;2852287;83;21163;-62
2021/03/02 15:02:56;;;;;;;53.00;34.95;;;;;;;15.54;58.31;101897.15;2827588;81;21559;-64
2021/03/02 15:07:00;;;;;;;48.35;34.48;;;;;;;15.49;58.17;101895.79;2903422;81;21144;-62
2021/03/02 15:11:03;;;;;;;63.38;39.55;;;;;;;15.47;58.37;101884.33;2890656;81;21149;-61
2021/03/02 15:15:10;;;;;;;58.20;35.80;;;;;;;15.44;58.58;101888.09;2842239;83;21148;-62
2021/03/02 15:19:14;;;;;;;334.25;95.05;;;;;;;15.34;58.39;101883.92;2852059;81;21216;-62
2021/03/02 15:23:19;;;;;;;74.32;42.38;;;;;;;15.28;58.58;101882.56;2839303;81;21190;-63
2021/03/02 15:27:24;;;;;;;91.28;52.53;;;;;;;15.21;59.01;101880.47;2837565;83;21152;-62
2021/03/02 15:31:28;;;;;;;65.40;37.80;;;;;;;15.15;59.28;101883.16;2839781;82;21195;-63
2021/03/02 15:35:34;;;;;;;79.80;46.53;;;;;;;15.14;59.15;101877.42;2840073;81;21136;-63
2021/03/02 15:39:41;;;;;;;88.23;57.27;;;;;;;15.11;59.11;101877.63;2842814;81;21231;-63
2021/03/02 15:43:48;;;;;;;86.57;56.10;;;;;;;15.04;59.11;101864.34;2835779;83;21178;-62
2021/03/02 15:47:56;;;;;;;76.13;57.30;;;;;;;14.95;59.66;101863.22;2847864;83;21148;-62
2021/03/02 15:52:01;;;;;;;78.92;58.68;;;;;;;14.82;60.00;101863.29;2869713;83;21201;-63
2021/03/02 15:56:06;;;;;;;156.18;84.28;;;;;;;14.73;60.24;101862.62;2858048;82;21189;-64
2021/03/02 16:00:13;;;;;;;154.67;82.47;;;;;;;14.59;60.63;101860.94;2807398;84;21145;-64
2021/03/02 16:04:38;;;;;;;139.80;77.92;;;;;;;14.45;61.02;101858.82;2855726;83;21157;-62
2021/03/02 16:08:45;;;;;;;176.25;97.75;;;;;;;14.31;61.65;101862.48;2856209;83;21114;-62
2021/03/02 16:12:57;;;;;;;140.10;75.87;;;;;;;14.14;62.10;101860.54;2809441;84;21164;-62
2021/03/02 16:17:06;;;;;;;120.33;70.35;;;;;;;14.01;62.52;101858.39;2857544;83;21593;-64
2021/03/02 16:21:15;;;;;;;147.78;82.90;;;;;;;13.88;62.71;101865.58;2857546;83;21487;-62
2021/03/02 16:25:20;;;;;;;103.95;71.45;;;;;;;13.71;63.11;101866.28;2857780;83;21143;-62
2021/03/02 16:29:24;;;;;;;91.82;72.27;;;;;;;13.54;63.41;101860.28;2831853;83;21180;-63
2021/03/02 16:33:29;;;;;;;155.50;103.50;;;;;;;13.37;63.73;101862.77;2869320;83;21195;-63
2021/03/02 16:37:34;;;;;;;230.67;133.65;;;;;;;13.22;63.88;101861.14;2860059;83;21623;-63
2021/03/02 16:41:37;;;;;;;247.15;140.80;;;;;;;13.03;64.01;101864.22;2855138;83;21189;-62
2021/03/02 16:45:41;;;;;;;257.12;135.05;;;;;;;12.83;64.15;101865.06;2880821;81;21169;-62
2021/03/02 16:49:55;;;;;;;186.43;100.87;;;;;;;12.65;64.41;101863.98;2854446;83;21136;-64
2021/03/02 16:53:59;;;;;;;99.30;61.73;;;;;;;12.48;64.75;101858.89;2820828;83;21591;-65
2021/03/02 16:58:30;;;;;;;127.22;77.80;;;;;;;12.24;65.35;101861.70;2853499;83;21164;-63
2021/03/02 17:02:40;;;;;;;206.78;105.22;;;;;;;11.94;66.30;101857.80;2859690;83;21156;-65
2021/03/02 17:06:45;;;;;;;172.85;101.12;;;;;;;11.77;66.77;101864.19;2821024;82;21465;-65
2021/03/02 17:10:51;;;;;;;149.15;86.78;;;;;;;11.65;67.00;101854.66;2819262;83;21141;-66
2021/03/02 17:14:56;;;;;;;219.77;134.03;;;;;;;11.56;67.13;101857.41;2794750;84;22101;-64
2021/03/02 17:18:59;;;;;;;154.63;102.27;;;;;;;11.46;67.52;101849.61;2855978;83;21121;-64
2021/03/02 17:23:05;;;;;;;121.47;85.40;;;;;;;11.38;67.73;101854.06;2830107;83;21725;-66
2021/03/02 17:27:08;;;;;;;129.90;88.33;;;;;;;11.31;67.96;101855.39;2806574;83;21171;-63
2021/03/02 17:31:11;;;;;;;106.07;68.70;;;;;;;11.22;68.32;101853.27;2816703;83;21172;-62
2021/03/02 17:35:15;;;;;;;113.40;72.22;;;;;;;11.09;68.93;101851.31;2829206;83;21583;-66
2021/03/02 17:39:18;;;;;;;92.35;61.98;;;;;;;10.94;68.98;101854.41;2811099;83;21168;-65
2021/03/02 17:43:21;;;;;;;108.40;69.00;;;;;;;10.79;69.38;101853.97;2856777;83;21161;-66
2021/03/02 17:47:24;;;;;;;115.17;75.00;;;;;;;10.76;69.91;101848.83;2815262;82;21546;-66
2021/03/02 17:51:28;;;;;;;121.25;76.55;;;;;;;10.71;69.78;101853.95;2857003;82;21184;-66
2021/03/02 17:55:31;;;;;;;126.07;82.05;;;;;;;10.65;69.46;101852.98;2850381;83;21184;-65
2021/03/02 17:59:34;;;;;;;153.32;99.37;;;;;;;10.47;69.79;101844.22;2852990;81;21193;-65
2021/03/02 18:03:37;;;;;;;116.00;75.28;;;;;;;10.41;70.30;101846.75;2909912;81;21173;-66
2021/03/02 18:07:40;;;;;;;112.30;78.75;;;;;;;10.34;70.38;101847.18;2869108;82;21168;-67
2021/03/02 18:11:44;;;;;;;111.35;75.45;;;;;;;10.25;70.28;101851.21;2877324;82;21583;-66
2021/03/02 18:15:47;;;;;;;120.60;86.08;;;;;;;10.10;70.31;101848.45;2872513;82;21164;-66
2021/03/02 18:19:51;;;;;;;93.60;61.42;;;;;;;9.99;70.65;101845.05;2884842;81;21693;-66
2021/03/02 18:23:54;;;;;;;82.30;53.55;;;;;;;9.86;71.26;101842.66;2919474;81;21180;-67
2021/03/02 18:27:59;;;;;;;84.45;56.65;;;;;;;9.72;71.57;101844.25;2871817;81;21458;-64
2021/03/02 18:32:03;;;;;;;81.67;62.67;;;;;;;9.63;72.34;101842.55;2866327;83;21166;-64
2021/03/02 18:36:08;;;;;;;102.22;65.83;;;;;;;9.54;72.56;101836.80;2861331;83;21186;-66
2021/03/02 18:40:12;;;;;;;141.70;84.77;;;;;;;9.34;73.44;101839.64;2862271;83;21177;-65
2021/03/02 18:44:16;;;;;;;136.72;86.85;;;;;;;9.10;74.93;101835.98;2855951;83;21632;-65